createdAt,value
2019-01-24T00:01:43.095Z,28.25
2019-01-24T00:04:13.129Z,28.85
2019-01-24T00:06:39.977Z,33.18
2019-01-24T00:09:08.285Z,26.45
2019-01-24T00:11:35.782Z,30.92
2019-01-24T00:14:03.284Z,34.45
2019-01-24T00:16:30.680Z,26.87
2019-01-24T00:18:58.111Z,31.30
2019-01-24T00:21:25.685Z,32.03
2019-01-24T00:23:53.204Z,27.00
2019-01-24T00:26:20.649Z,28.17
2019-01-24T00:28:48.159Z,26.23
2019-01-24T00:31:15.582Z,26.68
2019-01-24T00:33:43.021Z,26.42
2019-01-24T00:36:10.468Z,27.05
2019-01-24T00:38:37.954Z,28.60
2019-01-24T00:41:06.597Z,24.20
2019-01-24T00:43:34.155Z,27.05
2019-01-24T00:46:01.846Z,26.50
2019-01-24T00:48:31.440Z,28.42
2019-01-24T00:50:59.302Z,27.52
2019-01-24T00:53:28.164Z,25.17
2019-01-24T00:55:55.965Z,27.80
2019-01-24T00:58:23.493Z,33.40
2019-01-24T01:00:51.040Z,30.10
2019-01-24T01:03:18.765Z,33.42
2019-01-24T01:05:46.306Z,23.45
2019-01-24T01:08:14.070Z,30.80
2019-01-24T01:10:41.518Z,24.77
2019-01-24T01:13:09.046Z,26.07
2019-01-24T01:15:36.476Z,30.65
2019-01-24T01:18:04.044Z,29.85
2019-01-24T01:20:31.498Z,28.07
2019-01-24T01:22:58.932Z,27.48
2019-01-24T01:25:26.360Z,25.77
2019-01-24T01:27:53.845Z,27.65
2019-01-24T01:30:22.761Z,27.17
2019-01-24T01:32:50.703Z,26.62
2019-01-24T01:35:18.197Z,25.32
2019-01-24T01:37:45.981Z,24.77
2019-01-24T01:40:14.648Z,25.35
2019-01-24T01:42:42.155Z,23.52
2019-01-24T01:45:12.551Z,25.70
2019-01-24T01:47:39.986Z,28.80
2019-01-24T01:50:10.247Z,30.40
2019-01-24T01:52:38.141Z,27.60
2019-01-24T01:55:05.728Z,25.77
2019-01-24T01:57:33.139Z,26.12
2019-01-24T02:00:00.680Z,29.75
2019-01-24T02:02:28.173Z,27.27
2019-01-24T02:04:55.727Z,26.10
2019-01-24T02:07:23.355Z,29.02
2019-01-24T02:09:50.952Z,26.65
2019-01-24T02:12:18.722Z,27.22
2019-01-24T02:14:46.239Z,30.05
2019-01-24T02:17:13.969Z,30.30
2019-01-24T02:19:41.588Z,25.60
2019-01-24T02:22:09.215Z,25.32
2019-01-24T02:24:36.804Z,26.52
2019-01-24T02:27:04.541Z,28.42
2019-01-24T02:29:32.072Z,28.38
2019-01-24T02:31:59.973Z,26.42
2019-01-24T02:34:27.766Z,26.80
2019-01-24T02:36:55.465Z,28.47
2019-01-24T02:39:23.220Z,27.35
2019-01-24T02:41:50.995Z,25.52
2019-01-24T02:44:18.494Z,25.95
2019-01-24T02:46:46.107Z,24.35
2019-01-24T02:49:13.595Z,28.45
2019-01-24T02:51:41.051Z,26.25
2019-01-24T02:54:08.632Z,28.07
2019-01-24T02:56:36.202Z,28.17
2019-01-24T02:59:03.806Z,26.68
2019-01-24T03:01:31.350Z,29.55
2019-01-24T03:03:59.196Z,28.77
2019-01-24T03:06:27.025Z,28.67
2019-01-24T03:08:54.765Z,28.35
2019-01-24T03:11:22.750Z,25.62
2019-01-24T03:13:50.254Z,24.80
2019-01-24T03:16:17.686Z,24.63
2019-01-24T03:18:45.146Z,28.83
2019-01-24T03:21:12.969Z,31.40
2019-01-24T03:23:40.558Z,28.52
2019-01-24T03:26:08.303Z,29.02
2019-01-24T03:28:35.811Z,33.40
2019-01-24T03:31:03.253Z,25.95
2019-01-24T03:33:30.796Z,29.05
2019-01-24T03:35:58.194Z,32.67
2019-01-24T03:38:25.895Z,32.38
2019-01-24T03:40:53.407Z,34.85
2019-01-24T03:43:20.943Z,30.17
2019-01-24T03:45:48.731Z,32.48
2019-01-24T03:48:16.246Z,32.00
2019-01-24T03:50:43.680Z,31.50
2019-01-24T03:53:11.322Z,32.60
2019-01-24T03:55:39.372Z,32.70
2019-01-24T03:58:08.871Z,33.55
2019-01-24T04:00:36.501Z,35.65
2019-01-24T04:03:04.337Z,36.68
2019-01-24T04:05:31.823Z,37.13
2019-01-24T04:07:59.324Z,35.30
2019-01-24T04:10:26.773Z,34.15
2019-01-24T04:12:54.717Z,37.93
2019-01-24T04:15:24.077Z,35.78
2019-01-24T04:17:52.319Z,34.92
2019-01-24T04:20:19.818Z,41.50
2019-01-24T04:22:47.311Z,33.55
2019-01-24T04:25:14.916Z,33.30
2019-01-24T04:27:42.464Z,30.23
2019-01-24T04:33:13.158Z,35.73
2019-01-24T04:35:40.726Z,33.53
2019-01-24T04:38:13.587Z,33.58
2019-01-24T04:40:41.254Z,37.75
2019-01-24T04:43:09.045Z,33.53
2019-01-24T04:45:36.512Z,43.48
2019-01-24T04:48:04.161Z,35.33
2019-01-24T04:50:31.603Z,35.70
2019-01-24T04:52:59.393Z,30.20
2019-01-24T04:55:26.814Z,32.85
2019-01-24T04:57:54.995Z,30.45
2019-01-24T05:00:28.041Z,32.60
2019-01-24T05:02:55.574Z,32.85
2019-01-24T05:05:27.575Z,29.57
2019-01-24T05:07:52.421Z,38.15
2019-01-24T05:10:19.954Z,27.00
2019-01-24T05:12:47.502Z,26.73
2019-01-24T05:15:15.434Z,26.57
2019-01-24T05:17:43.250Z,32.60
2019-01-24T05:20:12.694Z,32.73
2019-01-24T05:22:40.383Z,27.87
2019-01-24T05:25:10.119Z,31.45
2019-01-24T05:27:37.918Z,32.50
2019-01-24T05:30:09.373Z,27.58
2019-01-24T05:32:36.931Z,31.00
2019-01-24T05:35:04.415Z,27.05
2019-01-24T05:37:31.832Z,31.95
2019-01-24T05:39:59.468Z,34.15
2019-01-24T05:42:27.230Z,31.65
2019-01-24T05:44:55.054Z,30.70
2019-01-24T05:47:22.885Z,32.08
2019-01-24T05:49:50.711Z,33.55
2019-01-24T05:52:19.727Z,29.95
2019-01-24T05:54:47.482Z,30.05
2019-01-24T05:57:16.040Z,31.17
2019-01-24T05:59:43.950Z,31.40
2019-01-24T06:02:11.615Z,32.20
2019-01-24T06:04:39.423Z,32.23
2019-01-24T06:07:06.949Z,33.42
2019-01-24T06:09:34.476Z,34.70
2019-01-24T06:12:02.266Z,35.33
2019-01-24T06:14:29.837Z,26.85
2019-01-24T06:16:57.795Z,27.22
2019-01-24T06:19:25.537Z,31.52
2019-01-24T06:21:53.014Z,27.90
2019-01-24T06:24:20.802Z,33.18
2019-01-24T06:27:06.651Z,30.75
2019-01-24T06:29:48.717Z,26.73
2019-01-24T06:36:09.717Z,29.72
2019-01-24T08:14:43.579Z,26.52
2019-01-24T08:17:11.392Z,23.73
2019-01-24T08:19:39.028Z,25.20
2019-01-24T08:22:06.470Z,28.98
2019-01-24T08:24:34.053Z,30.52
2019-01-24T08:27:01.665Z,24.87
2019-01-24T08:29:29.152Z,29.32
2019-01-24T08:31:56.997Z,34.92
2019-01-24T08:34:24.778Z,36.98
2019-01-24T08:36:52.652Z,39.67
2019-01-24T08:39:20.245Z,32.93
2019-01-24T08:41:48.732Z,36.75
2019-01-24T08:44:16.956Z,39.73
2019-01-24T08:46:45.758Z,40.98
2019-01-24T08:49:13.491Z,58.83
2019-01-24T08:51:41.261Z,43.08
2019-01-24T08:54:08.697Z,42.55
2019-01-24T08:56:36.361Z,37.23
2019-01-24T08:59:03.780Z,39.45
2019-01-24T09:01:31.308Z,45.25
2019-01-24T09:03:59.152Z,37.30
2019-01-24T09:06:26.705Z,40.90
2019-01-24T09:08:54.501Z,41.53
2019-01-24T09:11:21.949Z,42.45
2019-01-24T09:13:49.432Z,40.60
2019-01-24T09:16:17.265Z,35.33
2019-01-24T09:18:44.750Z,37.20
2019-01-24T09:21:12.298Z,37.65
2019-01-24T09:23:40.415Z,44.27
2019-01-24T09:26:10.285Z,39.85
2019-01-24T09:28:37.725Z,38.38
2019-01-24T09:31:05.455Z,39.70
2019-01-24T09:33:33.046Z,41.85
2019-01-24T09:36:01.027Z,43.17
2019-01-24T09:38:29.483Z,42.40
2019-01-24T09:40:57.016Z,41.63
2019-01-24T09:43:24.858Z,44.33
2019-01-24T09:45:52.357Z,42.10
2019-01-24T09:48:20.154Z,39.88
2019-01-24T09:50:47.744Z,40.30
2019-01-24T09:53:15.167Z,40.98
2019-01-24T09:55:42.906Z,39.88
2019-01-24T09:58:10.456Z,38.95
2019-01-24T10:00:38.051Z,42.83
2019-01-24T10:03:06.230Z,38.65
2019-01-24T10:05:33.857Z,41.88
2019-01-24T10:08:01.993Z,41.53
2019-01-24T10:10:29.688Z,37.88
2019-01-24T10:12:57.377Z,40.98
2019-01-24T10:15:25.386Z,39.38
2019-01-24T10:17:53.294Z,39.15
2019-01-24T10:20:21.941Z,40.30
2019-01-24T10:22:49.856Z,42.45
2019-01-24T10:25:28.900Z,42.43
2019-01-24T10:27:57.017Z,40.08
2019-01-24T10:30:26.299Z,41.77
2019-01-24T10:32:53.741Z,35.45
2019-01-24T10:35:21.311Z,40.35
2019-01-24T10:37:48.926Z,42.93
2019-01-24T10:40:18.953Z,52.25
2019-01-24T10:42:46.608Z,45.65
2019-01-24T10:45:15.361Z,44.88
2019-01-24T10:47:42.870Z,44.73
2019-01-24T10:50:11.988Z,42.53
2019-01-24T10:52:39.478Z,45.80
2019-01-24T10:55:13.569Z,45.08
2019-01-24T10:57:38.382Z,52.90
2019-01-24T11:00:09.760Z,44.85
2019-01-24T11:02:37.579Z,45.20
2019-01-24T11:05:06.430Z,48.55
2019-01-24T11:07:33.995Z,45.23
2019-01-24T11:10:01.956Z,47.20
2019-01-24T11:12:29.763Z,44.27
2019-01-24T11:14:57.241Z,40.12
2019-01-24T11:17:24.741Z,47.50
2019-01-24T11:19:52.261Z,40.33
2019-01-24T11:22:19.749Z,37.28
2019-01-24T11:24:47.507Z,43.28
2019-01-24T11:27:15.374Z,43.73
2019-01-24T11:29:42.870Z,45.67
2019-01-24T11:32:10.594Z,45.95
2019-01-24T11:34:38.190Z,43.40
2019-01-24T11:37:05.718Z,44.23
2019-01-24T11:39:34.225Z,41.00
2019-01-24T11:42:01.801Z,38.90
2019-01-24T11:44:29.250Z,43.70
2019-01-24T11:46:56.826Z,43.00
2019-01-24T11:49:24.398Z,42.73
2019-01-24T11:51:51.837Z,40.38
2019-01-24T11:54:19.267Z,41.58
2019-01-24T11:56:46.830Z,44.70
2019-01-24T11:59:14.437Z,44.00
2019-01-24T12:01:41.875Z,43.95
2019-01-24T12:04:09.355Z,38.10
2019-01-24T12:06:37.015Z,38.85
2019-01-24T12:09:07.295Z,48.87
2019-01-24T12:11:34.812Z,40.70
2019-01-24T12:14:02.510Z,44.10
2019-01-24T12:16:30.037Z,42.27
2019-01-24T12:18:57.567Z,42.25
2019-01-24T12:21:25.023Z,41.30
2019-01-24T12:23:54.721Z,44.03
2019-01-24T12:26:22.330Z,40.52
2019-01-24T12:28:50.340Z,42.88
2019-01-24T12:31:18.059Z,39.75
2019-01-24T12:33:45.685Z,39.42
2019-01-24T12:36:13.550Z,48.33
2019-01-24T12:38:41.742Z,42.48
2019-01-24T12:41:09.917Z,41.80
2019-01-24T12:43:37.856Z,42.50
2019-01-24T12:46:05.747Z,42.30
2019-01-24T12:48:33.563Z,40.90
2019-01-24T12:51:01.325Z,38.25
2019-01-24T12:53:29.267Z,44.80
2019-01-24T12:55:57.541Z,45.70
2019-01-24T12:58:25.515Z,42.83
2019-01-24T13:00:53.497Z,44.70
2019-01-24T13:03:21.531Z,41.48
2019-01-24T13:05:49.506Z,49.48
2019-01-24T13:08:17.363Z,44.98
2019-01-24T13:10:45.450Z,45.55
2019-01-24T13:13:13.647Z,38.28
2019-01-24T13:15:41.292Z,44.03
2019-01-24T13:18:09.345Z,43.60
2019-01-24T13:20:37.452Z,50.12
2019-01-24T13:23:05.368Z,43.08
2019-01-24T13:25:34.031Z,38.38
2019-01-24T13:28:01.763Z,39.10
2019-01-24T13:30:30.666Z,42.75
2019-01-24T13:32:58.601Z,40.63
2019-01-24T13:35:26.441Z,41.75
2019-01-24T13:37:54.352Z,37.00
2019-01-24T13:40:24.419Z,42.23
2019-01-24T13:42:52.203Z,34.30
2019-01-24T13:45:22.112Z,46.23
2019-01-24T13:47:49.805Z,37.58
2019-01-24T13:50:17.836Z,42.38
2019-01-24T13:52:45.539Z,41.77
2019-01-24T13:55:13.379Z,43.83
2019-01-24T13:57:41.102Z,45.85
2019-01-24T14:00:17.449Z,36.83
2019-01-24T14:02:46.497Z,30.40
2019-01-24T14:05:14.891Z,32.78
2019-01-24T14:07:42.918Z,30.75
2019-01-24T14:10:12.089Z,25.37
2019-01-24T14:12:39.995Z,25.25
2019-01-24T14:15:10.322Z,21.17
2019-01-24T14:17:39.648Z,23.77
2019-01-24T14:20:10.681Z,20.10
2019-01-24T14:22:38.285Z,22.45
2019-01-24T14:25:12.230Z,18.12
2019-01-24T14:27:41.431Z,20.55
2019-01-24T14:30:18.351Z,18.87
2019-01-24T14:32:46.263Z,17.75
2019-01-24T14:35:13.704Z,18.17
2019-01-24T14:37:41.310Z,18.60
2019-01-24T14:40:09.672Z,17.80
2019-01-24T14:42:37.582Z,16.52
2019-01-24T14:45:08.417Z,16.32
2019-01-24T14:47:36.250Z,17.77
2019-01-24T14:50:04.976Z,15.68
2019-01-24T14:52:32.859Z,18.15
2019-01-24T14:55:00.823Z,14.55
2019-01-24T14:57:28.726Z,22.40
2019-01-24T14:59:56.437Z,14.13
2019-01-24T15:02:24.564Z,14.58
2019-01-24T15:04:52.321Z,14.53
2019-01-24T15:07:19.970Z,16.07
2019-01-24T15:09:47.787Z,14.78
2019-01-24T15:12:15.399Z,15.38
2019-01-24T15:14:43.135Z,15.30
2019-01-24T15:17:10.912Z,17.20
2019-01-24T15:19:39.618Z,18.32
2019-01-24T15:22:07.329Z,18.77
2019-01-24T15:24:35.913Z,16.62
2019-01-24T15:27:04.448Z,13.43
2019-01-24T15:29:32.642Z,14.68
2019-01-24T15:32:00.640Z,15.98
2019-01-24T15:34:29.079Z,20.50
2019-01-24T15:36:56.723Z,17.32
2019-01-24T15:39:24.388Z,19.55
2019-01-24T15:41:51.853Z,22.52
2019-01-24T15:44:20.031Z,16.57
2019-01-24T15:46:48.093Z,27.55
2019-01-24T15:49:16.185Z,21.77
2019-01-24T15:51:43.780Z,18.75
2019-01-24T15:54:11.715Z,18.42
2019-01-24T15:56:40.388Z,19.15
2019-01-24T15:59:08.231Z,18.27
2019-01-24T16:01:35.930Z,22.00
2019-01-24T16:04:03.632Z,20.05
2019-01-24T16:06:31.065Z,20.68
2019-01-24T16:08:58.549Z,20.02
2019-01-24T16:11:26.279Z,19.95
2019-01-24T16:13:53.762Z,16.07
2019-01-24T16:16:21.605Z,17.27
2019-01-24T16:18:49.089Z,19.65
2019-01-24T16:21:16.688Z,18.77
2019-01-24T16:23:44.579Z,22.35
2019-01-24T16:26:12.498Z,20.32
2019-01-24T16:28:40.202Z,22.25
2019-01-24T16:31:07.879Z,19.85
2019-01-24T16:33:35.582Z,22.32
2019-01-24T16:36:03.490Z,21.65
2019-01-24T16:38:31.114Z,22.20
2019-01-24T16:40:59.369Z,21.57
2019-01-24T16:43:27.449Z,26.90
2019-01-24T16:45:55.715Z,26.27
2019-01-24T16:48:23.309Z,19.12
2019-01-24T16:50:51.208Z,28.45
2019-01-24T16:53:18.882Z,29.85
2019-01-24T16:55:46.492Z,31.97
2019-01-24T16:58:14.856Z,30.20
2019-01-24T17:01:05.084Z,22.37
2019-01-24T17:03:32.701Z,28.38
2019-01-24T17:06:00.253Z,24.15
2019-01-24T17:08:28.392Z,26.48
2019-01-24T17:10:56.078Z,22.20
2019-01-24T17:13:23.911Z,19.07
2019-01-24T17:15:51.506Z,22.93
2019-01-24T17:18:19.200Z,17.82
2019-01-24T17:20:46.823Z,19.50
2019-01-24T17:23:14.491Z,20.08
2019-01-24T17:25:42.343Z,19.67
2019-01-24T17:28:09.897Z,22.02
2019-01-24T17:30:37.870Z,19.52
2019-01-24T17:33:06.660Z,20.70
2019-01-24T17:35:34.284Z,23.47
2019-01-24T17:38:01.872Z,22.00
2019-01-24T17:40:30.352Z,25.70
2019-01-24T17:42:57.983Z,32.90
2019-01-24T17:45:25.695Z,153.70
2019-01-24T17:47:54.069Z,69.58
2019-01-24T17:50:21.855Z,48.48
2019-01-24T17:52:49.664Z,35.33
2019-01-24T17:55:20.261Z,39.33
2019-01-24T17:57:47.956Z,32.80
2019-01-24T18:00:18.111Z,31.12
2019-01-24T18:02:46.106Z,29.65
2019-01-24T18:05:15.867Z,23.00
2019-01-24T18:07:43.851Z,23.05
2019-01-24T18:10:14.851Z,19.82
2019-01-24T18:12:42.879Z,22.77
2019-01-24T18:15:14.363Z,17.95
2019-01-24T18:17:42.376Z,27.22
2019-01-24T18:20:18.210Z,19.05
2019-01-24T18:22:42.491Z,20.43
2019-01-24T18:25:10.089Z,20.32
2019-01-24T18:27:37.848Z,16.97
2019-01-24T18:30:07.180Z,18.73
2019-01-24T18:32:34.619Z,19.80
2019-01-24T18:35:02.187Z,20.82
2019-01-24T18:37:29.802Z,18.15
2019-01-24T18:39:57.328Z,22.87
2019-01-24T18:42:24.865Z,19.35
2019-01-24T18:44:52.298Z,19.57
2019-01-24T18:47:20.045Z,21.42
2019-01-24T18:49:47.487Z,21.90
2019-01-24T18:52:15.079Z,23.22
2019-01-24T18:54:42.583Z,25.05
2019-01-24T18:57:10.717Z,19.90
2019-01-24T18:59:38.256Z,18.17
2019-01-24T19:02:05.839Z,16.42
2019-01-24T19:04:33.736Z,19.70
2019-01-24T19:07:01.931Z,22.00
2019-01-24T19:09:29.778Z,16.95
2019-01-24T19:11:57.572Z,20.35
2019-01-24T19:14:25.363Z,22.77
2019-01-24T19:16:52.862Z,22.17
2019-01-24T19:19:20.527Z,20.27
2019-01-24T19:21:48.122Z,19.23
2019-01-24T19:24:15.875Z,18.48
2019-01-24T19:26:43.411Z,22.42
2019-01-24T19:29:10.902Z,21.27
2019-01-24T19:31:38.427Z,23.38
2019-01-24T19:34:06.030Z,23.22
2019-01-24T19:36:33.456Z,22.35
2019-01-24T19:39:01.058Z,19.80
2019-01-24T19:41:28.883Z,19.62
2019-01-24T19:43:56.410Z,21.27
2019-01-24T19:46:23.945Z,24.07
2019-01-24T19:48:51.387Z,22.02
2019-01-24T19:51:19.320Z,24.25
2019-01-24T19:53:46.901Z,31.27
2019-01-24T19:56:14.527Z,35.68
2019-01-24T19:58:42.064Z,37.08
2019-01-24T20:01:09.700Z,33.05
2019-01-24T20:03:37.470Z,35.85
2019-01-24T20:06:06.043Z,43.78
2019-01-24T20:08:33.640Z,43.90
2019-01-24T20:11:01.738Z,41.65
2019-01-24T20:13:29.224Z,51.45
2019-01-24T20:15:56.889Z,49.98
2019-01-24T20:18:24.431Z,42.88
2019-01-24T20:20:51.905Z,39.60
2019-01-24T20:23:19.524Z,36.93
2019-01-24T20:25:47.045Z,36.73
2019-01-24T20:28:15.003Z,36.45
2019-01-24T20:30:42.595Z,37.42
2019-01-24T20:33:10.127Z,38.95
2019-01-24T20:35:43.508Z,42.85
2019-01-24T20:38:11.204Z,41.30
2019-01-24T20:40:38.785Z,44.90
2019-01-24T20:43:08.437Z,36.83
2019-01-24T20:45:36.242Z,50.03
2019-01-24T20:48:04.099Z,46.00
2019-01-24T20:50:31.772Z,41.88
2019-01-24T20:52:59.464Z,46.02
2019-01-24T20:55:26.944Z,51.53
2019-01-24T20:57:54.434Z,45.28
2019-01-24T21:00:22.206Z,42.08
2019-01-24T21:02:50.085Z,36.23
2019-01-24T21:05:19.508Z,40.17
2019-01-24T21:07:47.264Z,44.18
2019-01-24T21:10:17.238Z,38.55
2019-01-24T21:12:45.130Z,30.72
2019-01-24T21:15:13.622Z,32.17
2019-01-24T21:17:41.377Z,30.68
2019-01-24T21:20:11.345Z,30.72
2019-01-24T21:22:38.767Z,30.75
2019-01-24T21:25:07.862Z,28.02
2019-01-24T21:27:35.429Z,27.42
2019-01-24T21:30:04.873Z,32.42
2019-01-24T21:32:32.475Z,26.10
2019-01-24T21:35:00.297Z,32.98
2019-01-24T21:37:28.131Z,27.37
2019-01-24T21:39:56.967Z,28.60
2019-01-24T21:42:24.575Z,26.80
2019-01-24T21:44:52.176Z,27.93
2019-01-24T21:47:19.778Z,28.15
2019-01-24T21:49:47.321Z,29.32
2019-01-24T21:52:15.222Z,30.00
2019-01-24T21:54:42.912Z,37.55
2019-01-24T21:57:10.370Z,36.28
2019-01-24T21:59:37.990Z,36.73
2019-01-24T22:02:05.782Z,29.15
2019-01-24T22:04:34.378Z,27.60
2019-01-24T22:07:02.069Z,29.48
2019-01-24T22:09:29.860Z,28.27
2019-01-24T22:11:57.567Z,26.87
2019-01-24T22:14:26.427Z,27.55
2019-01-24T22:16:54.035Z,27.25
2019-01-24T22:19:21.721Z,28.50
2019-01-24T22:21:49.524Z,29.37
2019-01-24T22:24:16.976Z,25.68
2019-01-24T22:26:44.402Z,23.90
2019-01-24T22:29:11.938Z,25.17
2019-01-24T22:31:39.449Z,27.98
2019-01-24T22:34:06.903Z,24.15
2019-01-24T22:36:34.359Z,27.42
2019-01-24T22:39:02.160Z,30.05
2019-01-24T22:41:29.629Z,24.67
2019-01-24T22:43:57.205Z,27.25
2019-01-24T22:46:24.970Z,39.58
2019-01-24T22:48:52.572Z,28.20
2019-01-24T22:51:20.167Z,31.90
2019-01-24T22:53:47.922Z,30.82
2019-01-24T22:56:15.422Z,32.17
2019-01-24T22:58:42.967Z,29.60
2019-01-24T23:01:26.128Z,30.92
2019-01-24T23:04:05.392Z,24.98
2019-01-24T23:06:33.114Z,26.35
2019-01-24T23:09:00.686Z,27.37
2019-01-24T23:11:28.366Z,30.08
2019-01-24T23:13:56.201Z,29.50
2019-01-24T23:16:23.760Z,27.10
2019-01-24T23:18:51.183Z,31.42
2019-01-24T23:21:19.083Z,29.95
2019-01-24T23:23:46.606Z,29.60
2019-01-24T23:26:14.395Z,28.00
2019-01-24T23:28:41.853Z,36.13
2019-01-24T23:31:09.321Z,34.23
2019-01-24T23:33:37.182Z,33.83
2019-01-24T23:36:04.754Z,32.38
2019-01-24T23:38:32.523Z,33.00
2019-01-24T23:41:00.201Z,36.13
2019-01-24T23:43:27.985Z,37.90
2019-01-24T23:45:55.573Z,35.50
2019-01-24T23:48:23.021Z,35.52
2019-01-24T23:50:50.488Z,35.03
2019-01-24T23:53:18.367Z,36.85
2019-01-24T23:55:45.841Z,38.13
2019-01-24T23:58:13.305Z,34.75
